createdAt,value
2023-04-07T00:00:28.449Z,58.67
2023-04-07T00:03:30.900Z,59.22
2023-04-07T00:06:33.280Z,59.40
2023-04-07T00:09:35.569Z,59.42
2023-04-07T00:12:37.869Z,57.91
2023-04-07T00:15:40.198Z,57.54
2023-04-07T00:18:42.595Z,56.92
2023-04-07T00:21:44.816Z,57.56
2023-04-07T00:24:47.309Z,57.27
2023-04-07T00:27:49.593Z,56.34
2023-04-07T00:30:52.107Z,57.11
2023-04-07T00:33:55.979Z,57.03
2023-04-07T00:36:58.468Z,57.75
2023-04-07T00:40:01.031Z,56.50
2023-04-07T00:43:03.385Z,56.62
2023-04-07T00:46:06.118Z,56.31
2023-04-07T00:49:11.183Z,56.14
2023-04-07T00:52:14.813Z,57.75
2023-04-07T00:55:17.290Z,57.81
2023-04-07T00:58:19.705Z,57.37
2023-04-07T01:01:23.682Z,57.15
2023-04-07T01:04:38.565Z,58.01
2023-04-07T01:08:02.538Z,58.39
2023-04-07T01:11:19.054Z,60.40
2023-04-07T01:14:21.475Z,59.82
2023-04-07T01:17:33.487Z,60.25
2023-04-07T01:20:36.397Z,60.14
2023-04-07T01:24:03.556Z,59.25
2023-04-07T01:27:21.976Z,60.68
2023-04-07T01:30:25.660Z,59.11
2023-04-07T01:33:32.206Z,60.58
2023-04-07T01:36:34.619Z,60.05
2023-04-07T01:39:37.793Z,60.07
2023-04-07T01:42:41.172Z,59.04
2023-04-07T01:45:44.309Z,58.58
2023-04-07T01:48:48.127Z,59.51
2023-04-07T01:51:50.934Z,58.73
2023-04-07T01:54:54.542Z,59.36
2023-04-07T01:57:56.813Z,59.15
2023-04-07T02:00:59.760Z,58.86
2023-04-07T02:04:15.721Z,57.76
2023-04-07T02:07:27.616Z,59.09
2023-04-07T02:10:30.640Z,57.71
2023-04-07T02:13:37.771Z,57.42
2023-04-07T02:16:41.950Z,59.82
2023-04-07T02:19:45.299Z,59.03
2023-04-07T02:22:47.817Z,59.46
2023-04-07T02:25:50.217Z,58.62
2023-04-07T02:28:52.554Z,59.14
2023-04-07T02:31:56.638Z,59.84
2023-04-07T02:34:59.030Z,60.71
2023-04-07T02:38:01.547Z,60.13
2023-04-07T02:41:03.819Z,60.30
2023-04-07T02:44:06.320Z,60.08
2023-04-07T02:47:08.758Z,60.16
2023-04-07T02:50:11.411Z,60.38
2023-04-07T02:53:13.874Z,60.47
2023-04-07T02:56:16.910Z,60.92
2023-04-07T02:59:19.389Z,60.07
2023-04-07T03:02:21.712Z,61.01
2023-04-07T03:05:24.210Z,60.29
2023-04-07T03:08:27.354Z,60.27
2023-04-07T03:11:30.924Z,60.71
2023-04-07T03:14:35.244Z,60.99
2023-04-07T03:17:37.764Z,60.53
2023-04-07T03:20:42.187Z,60.08
2023-04-07T03:23:47.294Z,61.77
2023-04-07T03:26:51.413Z,59.61
2023-04-07T03:29:59.534Z,59.59
2023-04-07T03:33:03.047Z,60.04
2023-04-07T03:36:07.636Z,60.87
2023-04-07T03:39:10.379Z,60.99
2023-04-07T03:42:13.230Z,60.89
2023-04-07T03:45:16.578Z,60.40
2023-04-07T03:48:24.579Z,60.85
2023-04-07T03:51:38.537Z,60.47
2023-04-07T03:54:48.095Z,60.79
2023-04-07T03:57:50.563Z,61.39
2023-04-07T04:00:52.868Z,61.51
2023-04-07T04:03:55.800Z,61.53
2023-04-07T04:07:05.982Z,61.40
2023-04-07T04:10:28.565Z,61.14
2023-04-07T04:13:31.126Z,60.96
2023-04-07T04:16:37.794Z,61.48
2023-04-07T04:19:48.148Z,62.29
2023-04-07T04:23:10.599Z,63.61
2023-04-07T04:26:13.249Z,62.81
2023-04-07T04:29:17.723Z,61.57
2023-04-07T04:32:21.348Z,61.20
2023-04-07T04:35:23.761Z,61.78
2023-04-07T04:38:39.070Z,58.35
2023-04-07T04:41:51.924Z,60.29
2023-04-07T04:44:57.280Z,59.07
2023-04-07T04:48:00.755Z,58.63
2023-04-07T04:51:03.348Z,57.96
2023-04-07T04:54:06.872Z,57.29
2023-04-07T04:57:09.939Z,57.65
2023-04-07T05:00:14.556Z,58.51
2023-04-07T05:03:20.105Z,57.07
2023-04-07T05:06:27.683Z,56.40
2023-04-07T05:09:33.251Z,59.31
2023-04-07T05:12:35.981Z,58.60
2023-04-07T05:15:38.384Z,57.31
2023-04-07T05:18:44.266Z,57.25
2023-04-07T05:21:46.810Z,58.08
2023-04-07T05:24:49.854Z,56.48
2023-04-07T05:27:52.100Z,57.21
2023-04-07T05:30:54.535Z,58.58
2023-04-07T05:34:01.257Z,57.41
2023-04-07T05:37:09.167Z,56.46
2023-04-07T05:40:12.246Z,56.99
2023-04-07T05:43:14.547Z,57.03
2023-04-07T05:46:17.070Z,56.62
2023-04-07T05:49:27.899Z,56.51
2023-04-07T05:52:37.564Z,56.95
2023-04-07T05:55:51.897Z,56.30
2023-04-07T05:59:10.774Z,56.69
2023-04-07T06:02:13.840Z,56.70
2023-04-07T06:05:16.693Z,55.66
2023-04-07T06:08:20.242Z,56.67
2023-04-07T06:11:22.609Z,55.12
2023-04-07T06:14:25.906Z,55.25
2023-04-07T06:17:28.478Z,56.93
2023-04-07T06:20:31.255Z,57.46
2023-04-07T06:23:33.688Z,57.11
2023-04-07T06:26:36.513Z,56.19
2023-04-07T06:29:38.823Z,56.52
2023-04-07T06:32:42.219Z,55.80
2023-04-07T06:35:44.660Z,56.64
2023-04-07T06:38:48.323Z,55.99
2023-04-07T06:41:50.692Z,57.70
2023-04-07T06:44:53.410Z,57.51
2023-04-07T06:47:55.701Z,57.89
2023-04-07T06:50:57.986Z,59.45
2023-04-07T06:54:00.613Z,58.05
2023-04-07T06:57:02.937Z,58.08
2023-04-07T07:00:07.994Z,59.01
2023-04-07T07:03:10.554Z,57.68
2023-04-07T07:06:13.130Z,58.54
2023-04-07T07:09:16.228Z,58.68
2023-04-07T07:12:18.580Z,59.92
2023-04-07T07:15:20.915Z,59.13
2023-04-07T07:18:23.293Z,58.32
2023-04-07T07:21:26.758Z,59.34
2023-04-07T07:24:29.357Z,60.70
2023-04-07T07:27:31.591Z,59.33
2023-04-07T07:30:33.891Z,59.23
2023-04-07T07:33:36.354Z,59.73
2023-04-07T07:36:38.801Z,61.13
2023-04-07T07:39:41.282Z,59.41
2023-04-07T07:42:43.585Z,58.80
2023-04-07T07:45:45.881Z,59.35
2023-04-07T07:48:48.141Z,57.83
2023-04-07T07:51:50.538Z,60.59
2023-04-07T07:54:53.025Z,58.32
2023-04-07T07:57:55.634Z,57.12
2023-04-07T08:00:57.969Z,59.77
2023-04-07T08:04:00.511Z,58.47
2023-04-07T08:07:03.937Z,59.16
2023-04-07T08:10:06.860Z,57.47
2023-04-07T08:13:09.211Z,57.40
2023-04-07T08:16:14.728Z,58.02
2023-04-07T08:19:17.082Z,58.33
2023-04-07T08:22:21.125Z,60.45
2023-04-07T08:25:23.548Z,58.06
2023-04-07T08:28:26.669Z,59.09
2023-04-07T08:31:29.084Z,60.39
2023-04-07T08:34:31.485Z,59.53
2023-04-07T08:37:34.520Z,57.98
2023-04-07T08:40:37.099Z,57.22
2023-04-07T08:43:40.845Z,57.68
2023-04-07T08:46:43.750Z,59.34
2023-04-07T08:49:48.729Z,59.89
2023-04-07T08:52:54.241Z,60.04
2023-04-07T08:55:57.075Z,61.35
2023-04-07T08:58:59.543Z,60.31
2023-04-07T09:02:02.470Z,61.99
2023-04-07T09:05:06.823Z,60.09
2023-04-07T09:08:09.173Z,60.64
2023-04-07T09:11:12.258Z,61.85
2023-04-07T09:14:15.528Z,61.68
2023-04-07T09:17:17.878Z,61.48
2023-04-07T09:20:20.603Z,59.03
2023-04-07T09:23:37.345Z,59.03
2023-04-07T09:26:39.666Z,59.77
2023-04-07T09:29:43.870Z,58.98
2023-04-07T09:32:46.215Z,59.02
2023-04-07T09:35:53.523Z,59.23
2023-04-07T09:38:55.939Z,59.14
2023-04-07T09:41:58.615Z,60.10
2023-04-07T09:45:01.702Z,59.57
2023-04-07T09:48:27.841Z,59.27
2023-04-07T09:51:30.121Z,58.60
2023-04-07T09:54:37.760Z,58.97
2023-04-07T09:57:41.602Z,56.86
2023-04-07T10:00:43.934Z,58.59
2023-04-07T10:03:48.042Z,58.22
2023-04-07T10:06:50.732Z,57.95
2023-04-07T10:09:53.059Z,56.80
2023-04-07T10:12:57.337Z,57.15
2023-04-07T10:16:00.494Z,58.28
2023-04-07T10:19:03.441Z,57.48
2023-04-07T10:22:06.724Z,58.01
2023-04-07T10:25:11.672Z,57.29
2023-04-07T10:28:14.672Z,58.16
2023-04-07T10:31:18.208Z,58.85
2023-04-07T10:34:46.080Z,58.47
2023-04-07T10:38:07.336Z,56.75
2023-04-07T10:41:31.917Z,56.47
2023-04-07T10:44:43.374Z,55.32
2023-04-07T10:47:58.076Z,55.78
2023-04-07T10:51:07.762Z,56.78
2023-04-07T10:54:23.907Z,56.13
2023-04-07T10:57:26.197Z,56.68
2023-04-07T11:00:28.786Z,56.19
2023-04-07T11:03:34.224Z,56.18
2023-04-07T11:06:47.235Z,55.66
2023-04-07T11:09:49.608Z,55.92
2023-04-07T11:12:59.981Z,56.71
2023-04-07T11:16:02.515Z,56.43
2023-04-07T11:19:04.825Z,55.50
2023-04-07T11:25:27.806Z,55.37
2023-04-07T11:28:31.002Z,54.69
2023-04-07T11:31:33.838Z,54.72
2023-04-07T11:34:36.814Z,54.80
2023-04-07T11:37:39.130Z,55.18
2023-04-07T11:40:41.429Z,54.53
2023-04-07T11:43:43.728Z,54.78
2023-04-07T11:46:59.110Z,55.43
2023-04-07T11:50:01.902Z,55.32
2023-04-07T11:53:04.210Z,54.80
2023-04-07T11:56:09.950Z,55.08
2023-04-07T11:59:23.955Z,54.51
2023-04-07T12:02:33.927Z,55.16
2023-04-07T12:05:46.073Z,53.98
2023-04-07T12:08:48.399Z,54.77
2023-04-07T12:11:50.697Z,54.94
2023-04-07T12:14:53.309Z,54.56
2023-04-07T12:17:55.885Z,56.24
2023-04-07T12:20:59.098Z,54.38
2023-04-07T12:24:02.536Z,55.29
2023-04-07T12:27:04.926Z,54.16
2023-04-07T12:30:08.225Z,54.71
2023-04-07T12:33:10.911Z,54.56
2023-04-07T12:36:13.396Z,55.32
2023-04-07T12:39:16.656Z,55.48
2023-04-07T12:42:18.981Z,55.32
2023-04-07T12:45:21.408Z,53.17
2023-04-07T12:48:24.085Z,54.37
2023-04-07T12:51:27.212Z,54.83
2023-04-07T12:54:30.455Z,54.73
2023-04-07T12:57:32.950Z,54.06
2023-04-07T13:00:35.795Z,53.67
2023-04-07T13:03:38.552Z,53.40
2023-04-07T13:06:41.034Z,53.74
2023-04-07T13:09:43.759Z,53.64
2023-04-07T13:12:46.451Z,53.81
2023-04-07T13:15:49.019Z,53.10
2023-04-07T13:18:51.588Z,53.21
2023-04-07T13:21:53.973Z,53.59
2023-04-07T13:24:56.352Z,54.44
2023-04-07T13:27:59.998Z,54.03
2023-04-07T13:31:02.388Z,54.04
2023-04-07T13:34:04.856Z,54.50
2023-04-07T13:37:07.410Z,53.74
2023-04-07T13:40:10.184Z,53.54
2023-04-07T13:43:12.781Z,53.87
2023-04-07T13:46:28.008Z,54.60
2023-04-07T13:49:31.128Z,53.96
2023-04-07T13:52:35.445Z,54.90
2023-04-07T13:55:38.757Z,54.04
2023-04-07T13:58:41.090Z,54.09
2023-04-07T14:01:43.523Z,54.50
2023-04-07T14:04:46.264Z,53.30
2023-04-07T14:07:48.822Z,54.19
2023-04-07T14:10:51.500Z,54.08
2023-04-07T14:13:57.007Z,53.10
2023-04-07T14:16:59.822Z,53.53
2023-04-07T14:20:02.260Z,54.08
2023-04-07T14:23:04.501Z,54.38
2023-04-07T14:26:10.472Z,54.41
2023-04-07T14:29:13.467Z,53.99
2023-04-07T14:32:17.006Z,54.72
2023-04-07T14:35:19.310Z,54.32
2023-04-07T14:38:26.061Z,54.19
2023-04-07T14:41:28.437Z,55.16
2023-04-07T14:44:31.380Z,54.46
2023-04-07T14:47:33.685Z,54.80
2023-04-07T14:50:36.049Z,55.89
2023-04-07T14:53:38.805Z,55.46
2023-04-07T14:56:41.522Z,54.48
2023-04-07T14:59:43.907Z,54.46
2023-04-07T15:02:46.487Z,55.16
2023-04-07T15:05:49.297Z,54.26
2023-04-07T15:08:52.094Z,54.47
2023-04-07T15:11:55.111Z,55.41
2023-04-07T15:14:57.822Z,55.44
2023-04-07T15:18:00.085Z,55.53
2023-04-07T15:21:02.400Z,55.64
2023-04-07T15:24:04.883Z,55.20
2023-04-07T15:27:07.900Z,55.36
2023-04-07T15:30:10.728Z,56.02
2023-04-07T15:33:13.209Z,56.76
2023-04-07T15:36:15.729Z,57.15
2023-04-07T15:39:18.436Z,56.68
2023-04-07T15:42:20.999Z,57.25
2023-04-07T15:45:23.409Z,58.11
2023-04-07T15:48:26.008Z,58.29
2023-04-07T15:51:29.659Z,58.66
2023-04-07T15:54:32.313Z,58.47
2023-04-07T15:57:34.597Z,59.01
2023-04-07T16:00:38.452Z,58.94
2023-04-07T16:03:40.955Z,59.35
2023-04-07T16:06:43.292Z,59.30
2023-04-07T16:09:45.949Z,59.08
2023-04-07T16:12:48.322Z,59.15
2023-04-07T16:15:50.617Z,59.43
2023-04-07T16:18:53.156Z,58.98
2023-04-07T16:21:55.516Z,59.87
2023-04-07T16:24:57.771Z,59.21
2023-04-07T16:28:00.104Z,59.68
2023-04-07T16:31:02.985Z,60.14
2023-04-07T16:34:05.388Z,60.20
2023-04-07T16:37:07.659Z,61.04
2023-04-07T16:40:11.219Z,60.48
2023-04-07T16:43:13.473Z,61.05
2023-04-07T16:46:15.863Z,61.29
2023-04-07T16:49:18.259Z,60.50
2023-04-07T16:52:20.870Z,60.80
2023-04-07T16:55:23.582Z,60.74
2023-04-07T16:58:26.029Z,60.63
2023-04-07T17:01:30.147Z,60.74
2023-04-07T17:04:32.808Z,61.52
2023-04-07T17:07:35.452Z,61.97
2023-04-07T17:10:37.695Z,61.02
2023-04-07T17:13:40.494Z,60.98
2023-04-07T17:16:42.817Z,61.94
2023-04-07T17:19:45.208Z,62.31
2023-04-07T17:22:49.031Z,62.11
2023-04-07T17:25:51.827Z,62.57
2023-04-07T17:28:54.161Z,62.89
2023-04-07T17:31:56.862Z,62.41
2023-04-07T17:34:59.148Z,61.86
2023-04-07T17:38:04.183Z,62.15
2023-04-07T17:41:06.784Z,62.64
2023-04-07T17:44:09.058Z,62.95
2023-04-07T17:47:11.484Z,63.00
2023-04-07T17:50:14.577Z,63.53
2023-04-07T17:53:17.263Z,63.47
2023-04-07T17:56:20.575Z,64.13
2023-04-07T17:59:23.032Z,63.94
2023-04-07T18:02:26.778Z,63.88
2023-04-07T18:05:31.191Z,63.51
2023-04-07T18:08:33.538Z,64.15
2023-04-07T18:11:36.361Z,63.73
2023-04-07T18:14:38.678Z,63.63
2023-04-07T18:17:41.488Z,63.59
2023-04-07T18:20:43.895Z,64.09
2023-04-07T18:23:46.537Z,64.10
2023-04-07T18:26:49.040Z,64.08
2023-04-07T18:29:51.948Z,64.05
2023-04-07T18:32:55.425Z,64.56
2023-04-07T18:35:57.781Z,64.70
2023-04-07T18:39:00.245Z,65.84
2023-04-07T18:42:02.581Z,64.83
2023-04-07T18:45:05.301Z,64.98
2023-04-07T18:48:07.944Z,66.22
2023-04-07T18:51:11.399Z,67.34
2023-04-07T18:54:14.010Z,67.44
2023-04-07T18:57:16.721Z,67.49
2023-04-07T19:00:19.058Z,66.58
2023-04-07T19:03:21.950Z,67.64
2023-04-07T19:06:24.331Z,66.22
2023-04-07T19:09:26.743Z,66.75
2023-04-07T19:12:29.229Z,67.79
2023-04-07T19:15:38.473Z,68.62
2023-04-07T19:18:40.915Z,67.24
2023-04-07T19:21:43.861Z,67.03
2023-04-07T19:24:46.118Z,66.84
2023-04-07T19:27:48.365Z,67.80
2023-04-07T19:30:50.912Z,69.12
2023-04-07T19:33:53.276Z,69.11
2023-04-07T19:36:55.596Z,69.51
2023-04-07T19:40:02.771Z,69.23
2023-04-07T19:43:05.684Z,68.36
2023-04-07T19:46:08.880Z,69.35
2023-04-07T19:49:11.602Z,69.61
2023-04-07T19:52:13.910Z,69.36
2023-04-07T19:55:17.526Z,69.86
2023-04-07T19:58:22.035Z,68.98
2023-04-07T20:01:24.784Z,69.53
2023-04-07T20:04:27.063Z,69.37
2023-04-07T20:07:31.089Z,70.24
2023-04-07T20:10:33.338Z,69.60
2023-04-07T20:13:35.727Z,69.44
2023-04-07T20:16:38.201Z,68.91
2023-04-07T20:19:41.473Z,68.61
2023-04-07T20:22:44.097Z,69.45
2023-04-07T20:25:46.394Z,70.55
2023-04-07T20:28:49.003Z,70.53
2023-04-07T20:31:51.620Z,69.33
2023-04-07T20:34:54.311Z,68.74
2023-04-07T20:37:56.612Z,69.37
2023-04-07T20:40:59.023Z,69.03
2023-04-07T20:44:01.323Z,68.61
2023-04-07T20:47:08.440Z,68.57
2023-04-07T20:50:11.367Z,68.93
2023-04-07T20:53:13.710Z,68.27
2023-04-07T20:56:16.402Z,68.47
2023-04-07T20:59:18.798Z,67.96
2023-04-07T21:02:21.525Z,68.99
2023-04-07T21:05:23.982Z,68.61
2023-04-07T21:08:26.476Z,67.43
2023-04-07T21:11:28.833Z,69.70
2023-04-07T21:14:32.200Z,68.77
2023-04-07T21:17:34.630Z,68.99
2023-04-07T21:20:38.050Z,70.09
2023-04-07T21:23:40.959Z,69.16
2023-04-07T21:26:43.305Z,68.50
2023-04-07T21:29:45.575Z,68.70
2023-04-07T21:32:48.089Z,68.88
2023-04-07T21:35:51.586Z,68.90
2023-04-07T21:38:54.211Z,69.11
2023-04-07T21:41:57.437Z,69.88
2023-04-07T21:44:59.930Z,69.66
2023-04-07T21:48:02.438Z,71.08
2023-04-07T21:51:04.819Z,70.19
2023-04-07T21:54:07.650Z,69.21
2023-04-07T21:57:09.981Z,69.50
2023-04-07T22:00:14.071Z,69.95
2023-04-07T22:03:20.423Z,69.71
2023-04-07T22:06:22.816Z,69.41
2023-04-07T22:09:25.247Z,70.02
2023-04-07T22:12:27.605Z,69.37
2023-04-07T22:15:30.049Z,69.47
2023-04-07T22:18:32.444Z,68.84
2023-04-07T22:21:34.765Z,69.89
2023-04-07T22:24:37.068Z,69.70
2023-04-07T22:27:39.386Z,69.00
2023-04-07T22:30:41.698Z,69.11
2023-04-07T22:33:44.136Z,69.27
2023-04-07T22:36:46.594Z,69.95
2023-04-07T22:39:48.959Z,69.29
2023-04-07T22:42:51.259Z,69.13
2023-04-07T22:45:53.889Z,69.34
2023-04-07T22:48:57.228Z,69.29
2023-04-07T22:51:59.519Z,69.75
2023-04-07T22:55:01.923Z,69.28
2023-04-07T22:58:04.401Z,68.37
2023-04-07T23:01:07.150Z,68.77
2023-04-07T23:04:09.538Z,69.10
2023-04-07T23:07:11.866Z,68.17
2023-04-07T23:10:14.209Z,69.13
2023-04-07T23:13:18.960Z,68.89
2023-04-07T23:16:21.449Z,70.31
2023-04-07T23:19:24.328Z,70.72
2023-04-07T23:22:27.120Z,69.26
2023-04-07T23:25:29.488Z,69.72
2023-04-07T23:28:31.796Z,69.06
2023-04-07T23:31:34.830Z,69.63
2023-04-07T23:34:37.198Z,70.56
2023-04-07T23:37:39.499Z,70.37
2023-04-07T23:40:41.910Z,70.74
2023-04-07T23:43:44.327Z,71.86
2023-04-07T23:46:46.831Z,71.50
2023-04-07T23:49:49.159Z,70.02
2023-04-07T23:52:51.583Z,70.66
2023-04-07T23:55:54.339Z,70.73
2023-04-07T23:58:56.612Z,70.89
